Airfield :
LOGIN :

Register | Disclaimer

   EN    FR    IT 

 










Legend :    VFR   Marginal VFR   IFR   Intensive IFR   Very Intensive IFR
Visi :
Ceiling :
>= 8 km
>= 3000ft
5 to 8 km
1000 to 3000 ft
1500m to 5 km
500 to 1000 ft
800 to 1500m
200 to 500 ft
< 800m
< 200 ft
Symbols :   Thunderstorms  Fog  Heavy snow  Heavy precipitations  Wind > 20 kt
SIGMETs :     Misc.  Thunderstorms  Icing  Turbulence  Mountain Waves  Volcanic Ashes






- Airport Elevation : 348 ft
- IATA code : LDV


LFRJ - Landivisiau

CURRENT METAR :
  • 050830Z AUTO 33017KT 9999 SCT036/// SCT043/// BKN064/// ///TCU 08/02 Q1013

EXPIRED METARs :
  • 050800Z AUTO 32017G31KT 9999 FEW018/// BKN037/// BKN048/// ///TCU 07/02 Q1013
  • 050730Z AUTO 33017KT 9999 SCT036/// BKN042/// BKN048/// ///TCU 08/02 Q1013
  • 050700Z AUTO 34018G29KT 9999 -RA BKN034/// BKN040/// BKN048/// ///TCU 07/04 Q1012
  • 050630Z AUTO 34019KT 9999 SCT036 BKN049 BKN058 08/02 Q1012
  • 050600Z AUTO 33018KT 9999 BKN033/// BKN040/// BKN052/// ///CB 08/02 Q1012

Expired Forecast.



MET'MAP, your aeronautical weather chart ! - Copyright ORBIFLY December 2007 - Disclaimer

ORBIFLY MET'MAP TEAM :

Programming & Development : Alexandra Zaïnal
Concept & original design : Baudouin d'Aumeries
Assistance for programming : Marc-Olivier Méhu
Technical & hardware support : Manuel Goepfert

Contact : metmap@orbifly.com




SOURCES & CREDITS :

   NOAA